Time;durP1;ratioP1;P1;durP2;ratioP2;P2;SDS_P1;SDS_P2;PMS_P1;PMS_P2;Temp;Humidity;BMP_temperature;BMP_pressure;BME280_temperature;BME280_humidity;BME280_pressure;Samples;Min_cycle;Max_cycle;Signal;HPM_P1;HPM_P2
2023/06/29 00:00:19;;;;;;;3.67;3.37;;;;;13.00;97045.00;;;;5059886;28;20199;-88
2023/06/29 00:03:11;;;;;;;3.70;2.15;;;;;12.80;97038.00;;;;5052105;28;20213;-87
2023/06/29 00:06:01;;;;;;;3.87;2.23;;;;;12.10;97040.00;;;;5065415;28;20240;-86
2023/06/29 00:08:50;;;;;;;3.73;2.67;;;;;12.40;97045.00;;;;5063953;28;20228;-87
2023/06/29 00:11:39;;;;;;;3.57;2.37;;;;;12.60;97045.00;;;;5052358;28;20224;-87
2023/06/29 00:14:28;;;;;;;2.40;2.20;;;;;12.50;97044.00;;;;5052654;28;20219;-86
2023/06/29 00:17:19;;;;;;;3.50;2.17;;;;;12.60;97045.00;;;;5064015;28;20199;-86
2023/06/29 00:20:11;;;;;;;3.63;2.50;;;;;12.80;97052.00;;;;5059026;28;20204;-86
2023/06/29 00:23:00;;;;;;;2.50;2.30;;;;;13.10;97051.00;;;;5065159;28;20196;-87
2023/06/29 00:25:49;;;;;;;5.17;4.67;;;;;12.50;97044.00;;;;5065641;28;20664;-87
2023/06/29 00:28:38;;;;;;;6.20;2.43;;;;;12.60;97043.00;;;;5052308;28;20200;-87
2023/06/29 00:31:28;;;;;;;2.87;2.27;;;;;13.00;97058.00;;;;5052593;28;20240;-87
2023/06/29 00:34:18;;;;;;;4.17;2.83;;;;;13.30;97054.00;;;;5059451;28;20196;-87
2023/06/29 00:37:08;;;;;;;2.33;2.17;;;;;13.20;97058.00;;;;5062939;28;20771;-86
2023/06/29 00:39:57;;;;;;;2.23;2.03;;;;;12.60;97052.00;;;;5054863;28;20670;-87
2023/06/29 00:42:46;;;;;;;2.93;2.30;;;;;12.70;97047.00;;;;5058453;28;20196;-87
2023/06/29 00:45:35;;;;;;;2.47;2.17;;;;;12.80;97046.00;;;;5055246;28;20200;-86
2023/06/29 00:48:25;;;;;;;5.87;2.30;;;;;13.10;97052.00;;;;5060453;28;20580;-87
2023/06/29 00:51:16;;;;;;;3.40;2.17;;;;;13.00;97050.00;;;;5063357;28;20246;-87
2023/06/29 00:54:07;;;;;;;2.30;2.10;;;;;12.70;97039.00;;;;5061250;28;20208;-86
2023/06/29 00:56:58;;;;;;;5.33;3.00;;;;;12.20;97034.00;;;;5059922;28;20192;-87
2023/06/29 00:59:48;;;;;;;2.60;2.40;;;;;12.20;97041.00;;;;5054055;28;20204;-87
2023/06/29 01:02:40;;;;;;;3.33;2.50;;;;;12.10;97047.00;;;;5059074;28;20736;-87
2023/06/29 01:05:34;;;;;;;3.43;2.60;;;;;12.40;97053.00;;;;5056957;28;20204;-86
2023/06/29 01:08:30;;;;;;;2.77;2.57;;;;;12.50;97048.00;;;;5059063;28;20993;-87
2023/06/29 01:11:22;;;;;;;4.10;2.70;;;;;12.60;97044.00;;;;5054326;28;20636;-87
2023/06/29 01:14:12;;;;;;;2.57;2.17;;;;;12.50;97045.00;;;;5059124;28;20192;-87
2023/06/29 01:17:03;;;;;;;3.33;2.00;;;;;12.40;97049.00;;;;5056727;28;20212;-86
2023/06/29 01:19:52;;;;;;;2.40;2.20;;;;;12.20;97043.00;;;;5052271;28;20197;-86
2023/06/29 01:22:45;;;;;;;2.33;2.17;;;;;12.30;97041.00;;;;5059248;28;20258;-86
2023/06/29 01:25:36;;;;;;;3.27;3.00;;;;;11.80;97039.00;;;;5056061;28;20196;-87
2023/06/29 01:28:26;;;;;;;3.90;2.23;;;;;11.90;97040.00;;;;5055241;28;20207;-87
2023/06/29 01:31:15;;;;;;;3.13;2.83;;;;;12.00;97037.00;;;;5050755;28;20227;-86
2023/06/29 01:34:04;;;;;;;3.70;2.47;;;;;11.80;97039.00;;;;5056589;28;20203;-87
2023/06/29 01:36:53;;;;;;;2.97;2.40;;;;;11.50;97029.00;;;;5050571;28;20612;-85
2023/06/29 01:39:48;;;;;;;2.53;2.33;;;;;11.20;97034.00;;;;5049529;28;20205;-87
2023/06/29 01:42:39;;;;;;;3.97;2.97;;;;;11.40;97029.00;;;;5055487;28;20192;-86
2023/06/29 01:45:29;;;;;;;3.10;2.80;;;;;11.70;97027.00;;;;5055000;28;20207;-86
2023/06/29 01:48:19;;;;;;;3.77;2.37;;;;;12.00;97036.00;;;;5056312;28;20215;-87
2023/06/29 01:51:09;;;;;;;3.83;2.53;;;;;11.90;97030.00;;;;5054917;28;20236;-88
2023/06/29 01:53:58;;;;;;;3.20;2.90;;;;;12.10;97037.00;;;;5060115;28;20725;-87
2023/06/29 01:56:48;;;;;;;3.03;2.73;;;;;12.20;97040.00;;;;5068916;28;20196;-86
2023/06/29 01:59:38;;;;;;;3.60;3.20;;;;;12.30;97027.00;;;;5058637;28;20197;-87
2023/06/29 02:02:27;;;;;;;3.50;3.20;;;;;12.20;97029.00;;;;5068430;28;20545;-87
2023/06/29 02:05:17;;;;;;;3.10;2.60;;;;;11.70;97027.00;;;;5054636;28;20209;-86
2023/06/29 02:08:06;;;;;;;2.80;2.53;;;;;10.90;97033.00;;;;5056404;28;20197;-87
2023/06/29 02:10:56;;;;;;;4.27;2.90;;;;;11.50;97033.00;;;;5059063;28;20235;-86
2023/06/29 02:13:45;;;;;;;5.00;2.83;;;;;11.70;97032.00;;;;5069588;28;20203;-85
2023/06/29 02:16:35;;;;;;;5.43;3.27;;;;;11.70;97028.00;;;;5061058;28;20196;-87
2023/06/29 02:19:24;;;;;;;2.60;2.40;;;;;11.70;97031.00;;;;5062655;28;20208;-87
2023/06/29 02:22:14;;;;;;;2.30;2.20;;;;;11.70;97030.00;;;;5057021;28;20211;-87
2023/06/29 02:25:03;;;;;;;3.13;2.83;;;;;11.80;97030.00;;;;5070237;28;20677;-87
2023/06/29 02:27:52;;;;;;;2.57;2.37;;;;;11.70;97030.00;;;;5060086;28;20240;-85
2023/06/29 02:30:41;;;;;;;2.83;2.63;;;;;12.00;97034.00;;;;5062237;28;20235;-85
2023/06/29 02:33:32;;;;;;;3.13;2.47;;;;;12.10;97032.00;;;;5059870;28;20678;-86
2023/06/29 02:36:22;;;;;;;3.27;2.90;;;;;12.30;97035.00;;;;5055791;28;20209;-87
2023/06/29 02:39:11;;;;;;;3.60;2.83;;;;;12.20;97041.00;;;;5064894;28;20287;-86
2023/06/29 02:42:00;;;;;;;2.60;2.40;;;;;11.60;97031.00;;;;5058580;28;20707;-87
2023/06/29 02:44:49;;;;;;;5.63;3.00;;;;;11.40;97035.00;;;;5058094;28;20216;-87
2023/06/29 02:47:38;;;;;;;2.90;2.70;;;;;11.40;97035.00;;;;5056380;28;20254;-87
2023/06/29 02:50:28;;;;;;;3.43;2.40;;;;;11.40;97034.00;;;;5060356;28;20216;-86
2023/06/29 02:53:18;;;;;;;3.37;2.03;;;;;11.20;97033.00;;;;5055477;28;20205;-86
2023/06/29 02:56:07;;;;;;;2.67;2.47;;;;;11.10;97040.00;;;;5060351;28;20313;-86
2023/06/29 02:58:56;;;;;;;3.30;3.00;;;;;11.00;97039.00;;;;5056114;28;20204;-87
2023/06/29 03:01:45;;;;;;;2.87;2.67;;;;;11.40;97042.00;;;;5063277;28;20219;-85
2023/06/29 03:04:34;;;;;;;4.27;2.70;;;;;11.60;97047.00;;;;5060068;28;20242;-86
2023/06/29 03:07:25;;;;;;;4.10;2.93;;;;;11.70;97048.00;;;;5061695;28;20685;-87
2023/06/29 03:10:14;;;;;;;3.40;2.83;;;;;11.50;97044.00;;;;5050982;28;20211;-86
2023/06/29 03:13:03;;;;;;;3.17;2.87;;;;;11.40;97038.00;;;;5058693;28;20774;-86
2023/06/29 03:15:56;;;;;;;3.17;2.90;;;;;11.20;97042.00;;;;5054892;28;20356;-86
2023/06/29 03:18:45;;;;;;;3.27;2.87;;;;;11.00;97044.00;;;;5055312;28;20274;-86
2023/06/29 03:21:34;;;;;;;4.03;2.63;;;;;11.30;97042.00;;;;5057429;28;20234;-86
2023/06/29 03:24:25;;;;;;;4.20;2.93;;;;;11.20;97040.00;;;;5060878;28;20211;-88
2023/06/29 03:27:14;;;;;;;2.60;2.40;;;;;11.10;97045.00;;;;5054018;28;20212;-86
2023/06/29 03:30:04;;;;;;;3.23;3.03;;;;;11.40;97037.00;;;;5064340;28;20201;-86
2023/06/29 03:32:55;;;;;;;3.30;3.00;;;;;10.90;97034.00;;;;5065820;28;20583;-87
2023/06/29 03:35:44;;;;;;;3.80;3.13;;;;;11.00;97038.00;;;;5054532;28;20200;-86
2023/06/29 03:38:33;;;;;;;3.60;3.27;;;;;10.80;97037.00;;;;5064375;28;20207;-86
2023/06/29 03:41:24;;;;;;;5.03;2.87;;;;;11.30;97042.00;;;;5053885;28;20220;-86
2023/06/29 03:44:13;;;;;;;4.17;3.10;;;;;11.30;97037.00;;;;5057970;28;20214;-85
2023/06/29 03:47:02;;;;;;;5.07;2.97;;;;;11.70;97035.00;;;;5066702;28;20877;-87
2023/06/29 03:49:51;;;;;;;3.77;3.40;;;;;11.90;97035.00;;;;5052725;28;20209;-87
2023/06/29 03:52:40;;;;;;;5.53;3.23;;;;;11.90;97045.00;;;;5051038;28;20285;-87
2023/06/29 03:55:29;;;;;;;3.40;3.00;;;;;11.90;97042.00;;;;5059423;28;20222;-88
2023/06/29 03:58:20;;;;;;;3.67;3.37;;;;;11.80;97042.00;;;;5053895;28;20689;-85
2023/06/29 04:01:09;;;;;;;3.17;2.50;;;;;11.40;97031.00;;;;5053491;28;20338;-86
2023/06/29 04:03:58;;;;;;;3.93;3.40;;;;;11.30;97041.00;;;;5062156;28;20202;-86
2023/06/29 04:06:47;;;;;;;3.20;2.97;;;;;11.30;97047.00;;;;5065349;28;20591;-86
2023/06/29 04:09:37;;;;;;;5.70;3.07;;;;;11.70;97046.00;;;;5056309;28;20205;-87
2023/06/29 04:12:26;;;;;;;3.17;2.97;;;;;11.70;97028.00;;;;5062419;28;20720;-87
2023/06/29 04:15:16;;;;;;;3.17;2.87;;;;;11.80;97027.00;;;;5060748;28;20227;-85
2023/06/29 04:18:06;;;;;;;3.07;2.87;;;;;12.00;97030.00;;;;5062666;28;20866;-86
2023/06/29 04:20:55;;;;;;;2.87;2.67;;;;;12.30;97035.00;;;;5056877;28;20224;-86
2023/06/29 04:23:44;;;;;;;5.80;3.03;;;;;12.40;97034.00;;;;5055885;28;20216;-86
2023/06/29 04:26:33;;;;;;;5.87;2.70;;;;;12.00;97042.00;;;;5060822;28;20208;-86
2023/06/29 04:29:22;;;;;;;2.67;2.47;;;;;12.10;97036.00;;;;5063773;28;20207;-85
2023/06/29 04:32:13;;;;;;;5.17;3.20;;;;;12.20;97047.00;;;;5053013;28;20228;-86
2023/06/29 04:35:02;;;;;;;4.03;2.87;;;;;12.40;97043.00;;;;5055764;28;20209;-85
2023/06/29 04:37:51;;;;;;;4.30;2.97;;;;;12.30;97037.00;;;;5063079;28;20196;-86
2023/06/29 04:40:42;;;;;;;4.07;3.67;;;;;12.70;97039.00;;;;5060848;28;20296;-86
2023/06/29 04:43:31;;;;;;;4.20;3.60;;;;;12.50;97032.00;;;;5062047;28;20200;-85
2023/06/29 04:46:20;;;;;;;5.13;2.93;;;;;12.80;97039.00;;;;5065813;28;20204;-85
2023/06/29 04:49:11;;;;;;;3.43;2.90;;;;;12.80;97039.00;;;;5059158;28;20215;-86
2023/06/29 04:52:00;;;;;;;4.57;3.20;;;;;12.90;97038.00;;;;5067474;28;20219;-85
2023/06/29 04:54:49;;;;;;;3.03;2.73;;;;;13.00;97040.00;;;;5059190;28;20208;-85
2023/06/29 04:57:38;;;;;;;3.07;2.67;;;;;13.40;97034.00;;;;5052049;28;20579;-85
2023/06/29 05:00:28;;;;;;;3.40;3.10;;;;;13.30;97028.00;;;;5063864;28;20594;-85
2023/06/29 05:03:17;;;;;;;5.80;2.83;;;;;13.40;97022.00;;;;5054711;28;20254;-88
2023/06/29 05:06:07;;;;;;;3.40;3.10;;;;;13.40;97024.00;;;;5061670;28;20220;-87
2023/06/29 05:08:56;;;;;;;3.50;3.13;;;;;13.70;97034.00;;;;5067248;28;20204;-88
2023/06/29 05:11:46;;;;;;;3.57;2.90;;;;;13.80;97040.00;;;;5061299;28;20226;-88
2023/06/29 05:14:35;;;;;;;3.80;3.00;;;;;14.10;97031.00;;;;5056603;28;20204;-87
2023/06/29 05:17:24;;;;;;;4.80;3.23;;;;;14.10;97020.00;;;;5058466;28;20215;-88
2023/06/29 05:20:17;;;;;;;6.67;3.80;;;;;14.40;97034.00;;;;5053224;28;20677;-87
2023/06/29 05:23:09;;;;;;;4.00;2.97;;;;;14.20;97028.00;;;;5054330;28;20238;-85
2023/06/29 05:25:58;;;;;;;3.30;3.03;;;;;14.70;97035.00;;;;5069554;28;20200;-85
2023/06/29 05:28:51;;;;;;;4.23;3.80;;;;;15.00;97042.00;;;;5055608;28;20226;-85
2023/06/29 05:31:52;;;;;;;3.87;3.40;;;;;15.00;97033.00;;;;5056554;28;20215;-85
2023/06/29 05:34:45;;;;;;;4.37;3.97;;;;;15.20;97025.00;;;;5051339;28;20246;-86
2023/06/29 05:37:40;;;;;;;5.90;3.30;;;;;15.70;97027.00;;;;5064508;28;20204;-86
2023/06/29 05:40:50;;;;;;;4.07;3.13;;;;;16.00;97030.00;;;;5052938;28;20216;-87
2023/06/29 05:44:14;;;;;;;4.57;3.80;;;;;16.50;97023.00;;;;5068263;28;20253;-87
2023/06/29 05:47:22;;;;;;;4.13;3.00;;;;;16.40;97034.00;;;;5066139;28;20199;-87
2023/06/29 05:50:24;;;;;;;4.20;3.90;;;;;16.50;97029.00;;;;5063223;28;20203;-87
2023/06/29 05:53:36;;;;;;;5.17;3.70;;;;;16.60;97033.00;;;;5060359;28;20216;-87
2023/06/29 05:56:34;;;;;;;3.77;3.30;;;;;17.00;97030.00;;;;5065570;28;20200;-87
2023/06/29 05:59:46;;;;;;;4.53;3.70;;;;;17.50;97037.00;;;;5065240;28;20200;-90
2023/06/29 06:02:56;;;;;;;4.77;3.57;;;;;17.90;97031.00;;;;5054993;28;20238;-87
2023/06/29 06:05:55;;;;;;;3.07;2.57;;;;;17.90;97024.00;;;;5054131;28;20209;-87
2023/06/29 06:08:56;;;;;;;4.10;3.57;;;;;18.00;97025.00;;;;5061337;28;20197;-87
2023/06/29 06:12:05;;;;;;;5.10;3.07;;;;;18.40;97028.00;;;;5060675;28;20212;-86
2023/06/29 06:15:19;;;;;;;3.03;2.83;;;;;18.70;97022.00;;;;5055183;28;20662;-87
2023/06/29 06:18:43;;;;;;;5.67;3.70;;;;;19.00;97022.00;;;;5056659;28;20255;-87
2023/06/29 06:25:20;;;;;;;6.30;2.90;;;;;19.60;97016.00;;;;5059047;28;20204;-88
2023/06/29 06:28:20;;;;;;;6.47;3.23;;;;;19.70;97018.00;;;;5053027;28;20196;-87
2023/06/29 06:31:30;;;;;;;13.07;3.23;;;;;19.90;97015.00;;;;5049402;28;20235;-88
2023/06/29 06:34:38;;;;;;;8.37;3.83;;;;;20.10;97015.00;;;;5052206;28;20212;-87
2023/06/29 06:37:40;;;;;;;6.77;2.93;;;;;20.00;97012.00;;;;5058918;28;20579;-87
2023/06/29 06:40:43;;;;;;;4.73;2.70;;;;;20.00;97004.00;;;;5061011;28;20227;-86
2023/06/29 06:43:42;;;;;;;3.83;3.10;;;;;20.00;97006.00;;;;5070888;28;20215;-87
2023/06/29 06:46:47;;;;;;;3.83;2.73;;;;;20.50;97016.00;;;;5064571;28;20930;-88
2023/06/29 06:49:40;;;;;;;3.27;2.83;;;;;20.30;97020.00;;;;5058711;28;20205;-87
2023/06/29 06:52:37;;;;;;;4.57;3.03;;;;;20.40;97012.00;;;;5055657;28;20193;-87
2023/06/29 06:55:42;;;;;;;4.80;2.73;;;;;20.90;97022.00;;;;5068073;28;20192;-86
2023/06/29 06:58:49;;;;;;;4.10;2.73;;;;;21.10;97006.00;;;;5059839;28;20199;-86
2023/06/29 07:01:52;;;;;;;5.90;2.90;;;;;21.50;97000.00;;;;5058380;28;20228;-87
2023/06/29 07:04:44;;;;;;;5.33;2.33;;;;;21.60;97006.00;;;;5063738;28;20657;-86
2023/06/29 07:07:54;;;;;;;3.77;2.93;;;;;21.90;97008.00;;;;5059794;28;20193;-87
2023/06/29 07:10:45;;;;;;;7.20;2.77;;;;;22.00;96993.00;;;;5060376;28;20223;-87
2023/06/29 07:13:48;;;;;;;3.83;3.03;;;;;22.20;97000.00;;;;5061570;28;20231;-87
2023/06/29 07:16:50;;;;;;;5.70;2.40;;;;;22.60;96993.00;;;;5068558;28;20583;-86
2023/06/29 07:20:03;;;;;;;3.13;2.83;;;;;22.80;96993.00;;;;5054811;28;20200;-88
2023/06/29 07:23:04;;;;;;;7.90;2.80;;;;;23.10;96993.00;;;;5054816;28;20199;-88
2023/06/29 07:26:12;;;;;;;;;;;;;;;;;;;;;
2023/06/29 07:29:07;;;;;;;6.67;2.30;;;;;23.40;96982.00;;;;5056562;28;20203;-86
2023/06/29 07:32:01;;;;;;;7.40;2.60;;;;;23.60;96988.00;;;;5063011;28;20281;-86
2023/06/29 07:35:05;;;;;;;6.27;2.40;;;;;23.60;96985.00;;;;5060988;28;20223;-87
2023/06/29 07:38:17;;;;;;;4.60;2.53;;;;;23.90;96988.00;;;;5054278;28;20579;-87
2023/06/29 07:44:41;;;;;;;5.83;2.33;;;;;24.40;96987.00;;;;5059041;28;20199;-87
2023/06/29 07:47:48;;;;;;;4.23;3.83;;;;;24.70;96996.00;;;;5052050;28;20223;-87
2023/06/29 07:50:53;;;;;;;3.00;2.13;;;;;24.10;96988.00;;;;5061051;28;20751;-88
2023/06/29 07:54:08;;;;;;;3.00;2.70;;;;;24.40;96986.00;;;;5053078;28;20228;-87
2023/06/29 07:57:10;;;;;;;3.67;2.27;;;;;24.30;96983.00;;;;5058239;28;20627;-87
2023/06/29 08:00:06;;;;;;;3.27;2.40;;;;;24.90;96979.00;;;;5065175;28;20211;-88
2023/06/29 08:03:14;;;;;;;2.47;2.13;;;;;25.20;96992.00;;;;5060137;28;20207;-87
2023/06/29 08:06:15;;;;;;;4.57;2.37;;;;;25.40;96983.00;;;;5063711;28;20196;-88
2023/06/29 08:09:26;;;;;;;3.83;2.00;;;;;25.20;96986.00;;;;5062167;28;20203;-88
2023/06/29 08:12:29;;;;;;;2.97;1.70;;;;;25.50;96989.00;;;;5073514;28;20234;-87
2023/06/29 08:15:22;;;;;;;2.33;2.13;;;;;25.60;96973.00;;;;5055257;28;20692;-88
2023/06/29 08:18:26;;;;;;;2.60;1.67;;;;;25.90;96973.00;;;;5063475;28;20211;-88
2023/06/29 08:21:30;;;;;;;5.27;2.20;;;;;26.00;96981.00;;;;5058464;28;20616;-87
2023/06/29 08:24:25;;;;;;;2.93;1.80;;;;;26.20;96970.00;;;;5062444;28;20289;-88
2023/06/29 08:27:43;;;;;;;2.13;1.50;;;;;26.40;96967.00;;;;5059233;28;20211;-88
2023/06/29 08:30:57;;;;;;;2.83;1.60;;;;;26.60;96971.00;;;;5057785;28;20228;-89
2023/06/29 08:34:30;;;;;;;1.90;1.60;;;;;26.70;96971.00;;;;5065955;28;20261;-88
2023/06/29 08:37:39;;;;;;;2.30;1.70;;;;;26.40;96963.00;;;;5056266;28;20200;-87
2023/06/29 08:40:46;;;;;;;3.33;1.53;;;;;26.90;96959.00;;;;5069693;28;20227;-88
2023/06/29 08:44:04;;;;;;;1.83;1.57;;;;;27.00;96962.00;;;;5059089;28;20197;-87
2023/06/29 08:47:29;;;;;;;1.87;1.40;;;;;27.30;96962.00;;;;5059948;28;20209;-88
2023/06/29 08:50:51;;;;;;;1.93;1.63;;;;;27.50;96959.00;;;;5061370;28;20220;-88
2023/06/29 08:53:58;;;;;;;2.53;1.77;;;;;27.30;96956.00;;;;4997507;28;20219;-87
2023/06/29 08:56:55;;;;;;;3.00;1.93;;;;;26.70;96940.00;;;;4994751;28;20235;-87
2023/06/29 08:59:46;;;;;;;2.93;1.60;;;;;26.30;96946.00;;;;4991150;28;20218;-88
2023/06/29 09:02:47;;;;;;;4.30;1.70;;;;;26.90;96950.00;;;;5002552;28;20206;-87
2023/06/29 09:05:36;;;;;;;4.80;1.93;;;;;27.00;96954.00;;;;4997306;28;20206;-88
2023/06/29 09:08:37;;;;;;;3.00;1.70;;;;;27.70;96954.00;;;;5001961;28;20245;-87
2023/06/29 09:11:42;;;;;;;1.80;1.60;;;;;27.80;96950.00;;;;4994615;28;20257;-87
2023/06/29 09:14:38;;;;;;;2.33;1.87;;;;;27.90;96946.00;;;;4995340;28;20220;-87
2023/06/29 09:17:33;;;;;;;2.00;1.77;;;;;28.00;96948.00;;;;4999078;28;20281;-87
2023/06/29 09:20:25;;;;;;;2.20;1.33;;;;;28.50;96945.00;;;;4989985;28;20224;-87
2023/06/29 09:23:23;;;;;;;2.57;1.97;;;;;28.90;96941.00;;;;5011186;28;20702;-87
2023/06/29 09:26:18;;;;;;;3.57;1.87;;;;;27.70;96939.00;;;;5059768;28;20207;-88
2023/06/29 09:29:20;;;;;;;2.63;1.77;;;;;28.50;96931.00;;;;5061544;28;20315;-87
2023/06/29 09:32:18;;;;;;;3.27;2.00;;;;;28.80;96922.00;;;;5052575;28;20225;-88
2023/06/29 09:35:28;;;;;;;3.10;1.80;;;;;28.70;96923.00;;;;5062962;28;20780;-87
2023/06/29 09:38:18;;;;;;;2.63;1.80;;;;;29.30;96920.00;;;;5060338;28;20222;-87
2023/06/29 09:41:18;;;;;;;2.70;1.97;;;;;29.50;96925.00;;;;5054178;28;20311;-88
2023/06/29 09:44:21;;;;;;;2.40;2.20;;;;;29.70;96920.00;;;;5062542;28;20198;-87
2023/06/29 09:47:37;;;;;;;2.97;2.07;;;;;29.30;96914.00;;;;5058408;28;20199;-89
2023/06/29 09:50:36;;;;;;;2.20;1.73;;;;;29.40;96917.00;;;;5062727;28;20700;-87
2023/06/29 09:53:37;;;;;;;2.73;1.93;;;;;29.60;96910.00;;;;5063187;28;20209;-88
2023/06/29 09:56:38;;;;;;;1.33;1.20;;;;;27.80;96905.00;;;;5065180;28;20196;-87
2023/06/29 09:59:44;;;;;;;5.47;1.97;;;;;28.90;96903.00;;;;5061168;28;20205;-89
2023/06/29 10:02:39;;;;;;;2.13;1.67;;;;;28.60;96899.00;;;;5058360;28;20205;-88
2023/06/29 10:05:39;;;;;;;2.53;2.00;;;;;28.10;96894.00;;;;5059577;28;20584;-87
2023/06/29 10:08:32;;;;;;;3.40;2.57;;;;;27.30;96880.00;;;;5065495;28;20209;-86
2023/06/29 10:11:26;;;;;;;2.83;2.37;;;;;27.90;96890.00;;;;5061945;28;20264;-88
2023/06/29 10:14:21;;;;;;;2.27;2.07;;;;;27.50;96887.00;;;;5058059;28;20202;-87
2023/06/29 10:17:14;;;;;;;2.67;2.13;;;;;27.80;96895.00;;;;5064561;28;20209;-89
2023/06/29 10:20:08;;;;;;;3.03;1.77;;;;;29.40;96880.00;;;;5064914;28;20214;-87
2023/06/29 10:23:27;;;;;;;3.33;2.20;;;;;29.90;96876.00;;;;5059297;28;20200;-86
2023/06/29 10:26:35;;;;;;;3.53;1.80;;;;;30.70;96881.00;;;;5069514;28;20207;-87
2023/06/29 10:29:44;;;;;;;4.90;2.43;;;;;31.00;96874.00;;;;5044778;28;20215;-88
2023/06/29 10:32:38;;;;;;;2.23;2.07;;;;;31.00;96871.00;;;;5056675;28;20199;-87
2023/06/29 10:35:30;;;;;;;2.53;1.93;;;;;31.10;96871.00;;;;5061007;28;20217;-87
2023/06/29 10:38:42;;;;;;;2.20;2.00;;;;;31.10;96869.00;;;;5064393;28;20682;-88
2023/06/29 10:41:53;;;;;;;2.40;1.40;;;;;31.50;96870.00;;;;5058532;28;20231;-88
2023/06/29 10:44:48;;;;;;;2.23;1.70;;;;;30.50;96859.00;;;;5063372;28;20195;-87
2023/06/29 10:47:47;;;;;;;3.00;2.40;;;;;31.20;96850.00;;;;5059056;28;20235;-89
2023/06/29 10:50:52;;;;;;;3.03;2.10;;;;;32.00;96849.00;;;;5057662;28;20342;-88
2023/06/29 10:53:50;;;;;;;2.50;2.30;;;;;31.10;96857.00;;;;5062943;28;20206;-88
2023/06/29 10:57:02;;;;;;;3.00;1.60;;;;;31.90;96842.00;;;;5065956;28;20223;-89
2023/06/29 11:03:40;;;;;;;3.90;2.00;;;;;32.60;96841.00;;;;5058301;28;20225;-88
2023/06/29 11:06:46;;;;;;;2.13;1.87;;;;;32.60;96831.00;;;;5064890;28;20578;-88
2023/06/29 11:10:07;;;;;;;3.43;1.90;;;;;32.90;96827.00;;;;5060207;28;20292;-90
2023/06/29 11:13:26;;;;;;;7.23;2.23;;;;;30.90;96821.00;;;;5069806;28;20990;-88
2023/06/29 11:16:31;;;;;;;1.93;1.80;;;;;31.90;96820.00;;;;5070267;28;20221;-88
2023/06/29 11:19:30;;;;;;;1.93;1.67;;;;;30.40;96822.00;;;;5063373;28;20216;-87
2023/06/29 11:22:20;;;;;;;2.80;1.63;;;;;29.50;96815.00;;;;5064663;28;20222;-89
2023/06/29 11:25:14;;;;;;;4.00;2.10;;;;;31.80;96821.00;;;;5060262;28;20349;-88
2023/06/29 11:28:03;;;;;;;4.30;1.90;;;;;32.50;96822.00;;;;5059560;28;20204;-87
2023/06/29 11:30:53;;;;;;;3.03;2.07;;;;;33.10;96814.00;;;;5062894;28;20227;-87
2023/06/29 11:33:48;;;;;;;2.23;1.83;;;;;33.10;96813.00;;;;5067135;28;20581;-89
2023/06/29 11:36:38;;;;;;;8.40;2.30;;;;;32.40;96811.00;;;;5063266;28;20194;-87
2023/06/29 11:39:29;;;;;;;3.40;1.70;;;;;29.40;96790.00;;;;5064042;28;20206;-87
2023/06/29 11:42:22;;;;;;;4.87;2.10;;;;;28.10;96789.00;;;;5062465;28;20229;-85
2023/06/29 11:45:12;;;;;;;2.30;2.03;;;;;29.30;96795.00;;;;5062823;28;20296;-89
2023/06/29 11:48:02;;;;;;;4.00;1.87;;;;;30.50;96794.00;;;;5060865;28;20207;-88
2023/06/29 11:50:51;;;;;;;1.63;1.50;;;;;29.50;96791.00;;;;5064601;28;20365;-86
2023/06/29 11:53:40;;;;;;;2.73;1.37;;;;;28.60;96784.00;;;;5066005;28;20225;-87
2023/06/29 11:56:35;;;;;;;3.07;2.03;;;;;28.30;96770.00;;;;5059793;28;20213;-87
2023/06/29 11:59:26;;;;;;;2.17;1.97;;;;;29.30;96766.00;;;;5051301;28;20308;-88
2023/06/29 12:02:16;;;;;;;2.07;1.80;;;;;28.90;96782.00;;;;5057074;28;20588;-86
2023/06/29 12:05:07;;;;;;;2.67;1.90;;;;;30.80;96780.00;;;;5056614;28;20358;-88
2023/06/29 12:07:57;;;;;;;3.70;1.93;;;;;32.40;96772.00;;;;5065489;28;20203;-89
2023/06/29 12:10:47;;;;;;;2.17;1.80;;;;;33.20;96761.00;;;;5061276;28;20227;-90
2023/06/29 12:13:36;;;;;;;3.03;2.07;;;;;31.90;96753.00;;;;5062201;28;20258;-90
2023/06/29 12:16:27;;;;;;;2.10;1.40;;;;;30.80;96756.00;;;;5058880;28;20287;-89
2023/06/29 12:19:19;;;;;;;1.80;1.70;;;;;28.70;96735.00;;;;5062808;28;20579;-85
2023/06/29 12:22:15;;;;;;;2.27;1.67;;;;;28.00;96745.00;;;;5059867;28;20277;-84
2023/06/29 12:25:04;;;;;;;2.70;1.63;;;;;29.90;96747.00;;;;5059064;28;20300;-88
2023/06/29 12:27:54;;;;;;;2.27;1.70;;;;;30.20;96745.00;;;;5059387;28;20208;-87
2023/06/29 12:30:43;;;;;;;2.90;1.90;;;;;29.10;96742.00;;;;5056940;28;20695;-86
2023/06/29 12:33:35;;;;;;;3.50;1.50;;;;;28.80;96722.00;;;;5054772;28;20684;-85
2023/06/29 12:36:24;;;;;;;2.80;1.57;;;;;29.30;96739.00;;;;5057459;28;20202;-86
2023/06/29 12:39:16;;;;;;;1.73;1.63;;;;;29.00;96719.00;;;;5063941;28;20225;-84
2023/06/29 12:42:06;;;;;;;1.50;1.40;;;;;29.60;96728.00;;;;5061613;28;20226;-85
2023/06/29 12:44:56;;;;;;;2.87;2.20;;;;;29.60;96732.00;;;;5062170;28;20208;-88
2023/06/29 12:47:45;;;;;;;2.37;2.10;;;;;31.50;96735.00;;;;5061002;28;20205;-87
2023/06/29 12:50:40;;;;;;;2.93;2.00;;;;;32.80;96739.00;;;;5064047;28;20223;-87
2023/06/29 12:53:33;;;;;;;3.07;1.50;;;;;32.30;96730.00;;;;5062388;28;20216;-88
2023/06/29 12:56:22;;;;;;;2.77;2.13;;;;;34.30;96734.00;;;;5064145;28;20249;-89
2023/06/29 12:59:12;;;;;;;1.80;1.70;;;;;35.20;96733.00;;;;5068515;28;20205;-88
2023/06/29 13:02:05;;;;;;;2.15;1.70;;;;;35.30;96729.00;;;;5057070;28;20300;-91
2023/06/29 13:04:57;;;;;;;2.92;2.28;;;;;35.60;96728.00;;;;5067508;28;20203;-89
2023/06/29 13:07:48;;;;;;;5.43;2.13;;;;;36.30;96729.00;;;;5062175;28;20224;-89
2023/06/29 13:10:37;;;;;;;4.63;1.67;;;;;36.60;96720.00;;;;5063374;28;20238;-92
2023/06/29 13:13:27;;;;;;;2.50;1.98;;;;;35.90;96733.00;;;;5064761;28;20196;-89
2023/06/29 13:16:16;;;;;;;3.45;1.77;;;;;35.40;96722.00;;;;5062580;28;20257;-89
2023/06/29 13:19:05;;;;;;;3.38;2.00;;;;;36.20;96722.00;;;;5067609;28;20668;-88
2023/06/29 13:26:04;;;;;;;2.15;1.65;;;;;35.80;96730.00;;;;5056540;28;20642;-87
2023/06/29 13:28:55;;;;;;;1.80;1.63;;;;;35.60;96717.00;;;;5060147;28;20584;-89
2023/06/29 13:32:21;;;;;;;3.05;1.92;;;;;36.50;96729.00;;;;5063782;28;20231;-88
2023/06/29 13:35:58;;;;;;;1.90;1.77;;;;;35.90;96724.00;;;;5058357;28;20254;-89
2023/06/29 13:42:39;;;;;;;4.15;1.70;;;;;37.30;96722.00;;;;5057092;28;20203;-89
2023/06/29 13:45:33;;;;;;;2.63;1.88;;;;;31.20;96697.00;;;;5058247;28;20688;-87
2023/06/29 13:48:22;;;;;;;2.72;2.53;;;;;30.50;96696.00;;;;5061469;28;20408;-88
2023/06/29 13:51:13;;;;;;;2.58;2.38;;;;;32.60;96695.00;;;;5057120;28;20220;-88
2023/06/29 13:54:54;;;;;;;2.80;1.98;;;;;33.00;96713.00;;;;5061233;28;20663;-88
2023/06/29 13:58:05;;;;;;;1.98;1.75;;;;;32.70;96704.00;;;;5066256;28;20211;-89
2023/06/29 14:04:39;;;;;;;2.53;1.70;;;;;36.10;96701.00;;;;5014498;28;20201;-89
2023/06/29 14:07:32;;;;;;;1.75;1.55;;;;;35.80;96701.00;;;;5022841;28;20739;-88
2023/06/29 14:10:22;;;;;;;3.60;1.30;;;;;37.30;96695.00;;;;5059397;28;20216;-89
2023/06/29 14:13:12;;;;;;;2.03;1.55;;;;;37.70;96696.00;;;;5064860;28;20195;-88
2023/06/29 14:16:01;;;;;;;3.38;2.03;;;;;36.60;96703.00;;;;5054742;28;20200;-89
2023/06/29 14:18:51;;;;;;;3.05;1.88;;;;;36.50;96698.00;;;;5063692;28;20202;-90
2023/06/29 14:21:42;;;;;;;3.30;1.63;;;;;35.20;96689.00;;;;5065660;28;20255;-89
2023/06/29 14:24:32;;;;;;;2.22;1.80;;;;;35.70;96680.00;;;;5059275;28;20220;-89
2023/06/29 14:27:22;;;;;;;1.92;1.73;;;;;36.80;96691.00;;;;5065187;28;20212;-89
2023/06/29 14:30:33;;;;;;;2.35;1.55;;;;;36.80;96682.00;;;;5058407;28;20200;-89
2023/06/29 14:33:25;;;;;;;2.22;1.60;;;;;35.80;96686.00;;;;5064004;28;20679;-90
2023/06/29 14:36:34;;;;;;;2.15;1.65;;;;;34.90;96674.00;;;;5064074;28;20738;-89
2023/06/29 14:39:28;;;;;;;2.95;1.98;;;;;32.50;96667.00;;;;5064506;28;20199;-88
2023/06/29 14:42:17;;;;;;;3.65;1.83;;;;;35.00;96668.00;;;;5059630;28;20241;-89
2023/06/29 14:45:07;;;;;;;2.20;1.55;;;;;36.00;96673.00;;;;5063350;28;20200;-88
2023/06/29 14:47:58;;;;;;;2.08;1.77;;;;;35.80;96675.00;;;;5059579;28;20370;-89
2023/06/29 14:50:47;;;;;;;1.80;1.63;;;;;35.00;96669.00;;;;5063513;28;20220;-88
2023/06/29 14:53:37;;;;;;;1.98;1.48;;;;;35.10;96668.00;;;;5059705;28;20590;-89
2023/06/29 14:56:26;;;;;;;3.05;2.42;;;;;32.80;96664.00;;;;5062439;28;20211;-87
2023/06/29 14:59:15;;;;;;;3.13;2.03;;;;;32.60;96652.00;;;;5060006;28;20203;-86
2023/06/29 15:02:05;;;;;;;2.88;1.88;;;;;33.00;96652.00;;;;5067123;28;20688;-88